sensor_id;sensor_type;location;lat;lon;timestamp;P1;durP1;ratioP1;P2;durP2;ratioP2
3085;SDS011;52812;48.960;9.108;2023-10-19T00:02:04;31.97;;;19.80;;
3085;SDS011;52812;48.960;9.108;2023-10-19T00:04:31;30.43;;;18.77;;
3085;SDS011;52812;48.960;9.108;2023-10-19T00:06:59;29.57;;;17.50;;
3085;SDS011;52812;48.960;9.108;2023-10-19T00:09:26;30.30;;;18.50;;
3085;SDS011;52812;48.960;9.108;2023-10-19T00:11:56;30.87;;;18.10;;
3085;SDS011;52812;48.960;9.108;2023-10-19T00:14:22;33.00;;;19.50;;
3085;SDS011;52812;48.960;9.108;2023-10-19T00:16:51;33.17;;;18.67;;
3085;SDS011;52812;48.960;9.108;2023-10-19T00:19:21;29.77;;;17.70;;
3085;SDS011;52812;48.960;9.108;2023-10-19T00:21:47;31.53;;;19.27;;
3085;SDS011;52812;48.960;9.108;2023-10-19T00:24:19;31.37;;;18.57;;
3085;SDS011;52812;48.960;9.108;2023-10-19T00:26:47;34.63;;;20.50;;
3085;SDS011;52812;48.960;9.108;2023-10-19T00:29:20;31.50;;;19.10;;
3085;SDS011;52812;48.960;9.108;2023-10-19T00:32:05;28.97;;;18.50;;
3085;SDS011;52812;48.960;9.108;2023-10-19T00:34:31;31.20;;;19.30;;
3085;SDS011;52812;48.960;9.108;2023-10-19T00:36:58;32.03;;;18.80;;
3085;SDS011;52812;48.960;9.108;2023-10-19T00:39:32;30.10;;;18.50;;
3085;SDS011;52812;48.960;9.108;2023-10-19T00:42:08;28.93;;;17.07;;
3085;SDS011;52812;48.960;9.108;2023-10-19T00:44:34;26.30;;;17.30;;
3085;SDS011;52812;48.960;9.108;2023-10-19T00:47:14;26.77;;;16.83;;
3085;SDS011;52812;48.960;9.108;2023-10-19T00:49:44;32.70;;;17.70;;
3085;SDS011;52812;48.960;9.108;2023-10-19T00:52:11;28.77;;;18.00;;
3085;SDS011;52812;48.960;9.108;2023-10-19T00:54:44;27.50;;;17.10;;
3085;SDS011;52812;48.960;9.108;2023-10-19T00:57:15;29.23;;;16.87;;
3085;SDS011;52812;48.960;9.108;2023-10-19T00:59:45;28.93;;;17.73;;
3085;SDS011;52812;48.960;9.108;2023-10-19T01:02:25;28.13;;;16.93;;
3085;SDS011;52812;48.960;9.108;2023-10-19T01:04:52;27.53;;;16.77;;
3085;SDS011;52812;48.960;9.108;2023-10-19T01:07:22;29.57;;;16.97;;
3085;SDS011;52812;48.960;9.108;2023-10-19T01:09:55;24.53;;;16.20;;
3085;SDS011;52812;48.960;9.108;2023-10-19T01:12:24;25.40;;;15.70;;
3085;SDS011;52812;48.960;9.108;2023-10-19T01:17:52;23.53;;;15.40;;
3085;SDS011;52812;48.960;9.108;2023-10-19T01:20:29;27.97;;;15.93;;
3085;SDS011;52812;48.960;9.108;2023-10-19T01:25:55;27.10;;;17.13;;
3085;SDS011;52812;48.960;9.108;2023-10-19T01:29:18;25.13;;;16.23;;
3085;SDS011;52812;48.960;9.108;2023-10-19T01:31:51;24.73;;;15.40;;
3085;SDS011;52812;48.960;9.108;2023-10-19T01:34:21;25.90;;;16.40;;
3085;SDS011;52812;48.960;9.108;2023-10-19T01:36:47;24.23;;;15.67;;
3085;SDS011;52812;48.960;9.108;2023-10-19T01:39:50;22.40;;;15.33;;
3085;SDS011;52812;48.960;9.108;2023-10-19T01:50:02;25.00;;;15.27;;
3085;SDS011;52812;48.960;9.108;2023-10-19T01:52:30;26.50;;;15.60;;
3085;SDS011;52812;48.960;9.108;2023-10-19T01:54:56;23.73;;;14.73;;
3085;SDS011;52812;48.960;9.108;2023-10-19T01:57:32;25.80;;;16.00;;
3085;SDS011;52812;48.960;9.108;2023-10-19T01:59:59;27.30;;;16.37;;
3085;SDS011;52812;48.960;9.108;2023-10-19T02:02:33;26.33;;;15.27;;
3085;SDS011;52812;48.960;9.108;2023-10-19T02:05:00;27.73;;;16.03;;
3085;SDS011;52812;48.960;9.108;2023-10-19T02:07:29;28.13;;;15.73;;
3085;SDS011;52812;48.960;9.108;2023-10-19T02:09:55;25.27;;;15.37;;
3085;SDS011;52812;48.960;9.108;2023-10-19T02:12:20;24.40;;;15.40;;
3085;SDS011;52812;48.960;9.108;2023-10-19T02:14:46;26.83;;;15.60;;
3085;SDS011;52812;48.960;9.108;2023-10-19T02:17:12;23.97;;;14.83;;
3085;SDS011;52812;48.960;9.108;2023-10-19T02:19:40;23.80;;;15.23;;
3085;SDS011;52812;48.960;9.108;2023-10-19T02:22:05;28.37;;;16.03;;
3085;SDS011;52812;48.960;9.108;2023-10-19T02:24:36;22.20;;;14.90;;
3085;SDS011;52812;48.960;9.108;2023-10-19T02:27:04;23.07;;;14.93;;
3085;SDS011;52812;48.960;9.108;2023-10-19T02:29:29;23.40;;;15.20;;
3085;SDS011;52812;48.960;9.108;2023-10-19T02:31:56;25.50;;;15.73;;
3085;SDS011;52812;48.960;9.108;2023-10-19T02:34:22;27.20;;;16.20;;
3085;SDS011;52812;48.960;9.108;2023-10-19T02:36:48;26.77;;;14.77;;
3085;SDS011;52812;48.960;9.108;2023-10-19T02:39:14;28.93;;;14.80;;
3085;SDS011;52812;48.960;9.108;2023-10-19T02:41:47;24.87;;;14.80;;
3085;SDS011;52812;48.960;9.108;2023-10-19T02:44:14;23.50;;;16.73;;
3085;SDS011;52812;48.960;9.108;2023-10-19T02:46:47;27.30;;;16.40;;
3085;SDS011;52812;48.960;9.108;2023-10-19T02:49:19;25.53;;;16.10;;
3085;SDS011;52812;48.960;9.108;2023-10-19T02:51:46;22.40;;;14.20;;
3085;SDS011;52812;48.960;9.108;2023-10-19T02:54:14;26.20;;;16.03;;
3085;SDS011;52812;48.960;9.108;2023-10-19T02:56:44;23.60;;;15.37;;
3085;SDS011;52812;48.960;9.108;2023-10-19T02:59:22;25.37;;;15.00;;
3085;SDS011;52812;48.960;9.108;2023-10-19T03:01:49;28.00;;;15.23;;
3085;SDS011;52812;48.960;9.108;2023-10-19T03:04:16;24.60;;;15.70;;
3085;SDS011;52812;48.960;9.108;2023-10-19T03:06:42;22.50;;;14.80;;
3085;SDS011;52812;48.960;9.108;2023-10-19T03:09:08;23.23;;;14.70;;
3085;SDS011;52812;48.960;9.108;2023-10-19T03:11:45;21.53;;;14.10;;
3085;SDS011;52812;48.960;9.108;2023-10-19T03:14:11;22.73;;;13.33;;
3085;SDS011;52812;48.960;9.108;2023-10-19T03:16:39;20.83;;;13.90;;
3085;SDS011;52812;48.960;9.108;2023-10-19T03:19:07;25.37;;;14.83;;
3085;SDS011;52812;48.960;9.108;2023-10-19T03:21:33;22.80;;;14.80;;
3085;SDS011;52812;48.960;9.108;2023-10-19T03:24:07;22.37;;;13.37;;
3085;SDS011;52812;48.960;9.108;2023-10-19T03:27:08;26.57;;;14.33;;
3085;SDS011;52812;48.960;9.108;2023-10-19T03:29:41;21.70;;;13.77;;
3085;SDS011;52812;48.960;9.108;2023-10-19T03:32:13;23.63;;;13.90;;
3085;SDS011;52812;48.960;9.108;2023-10-19T03:34:41;21.97;;;14.03;;
3085;SDS011;52812;48.960;9.108;2023-10-19T03:37:12;21.47;;;13.33;;
3085;SDS011;52812;48.960;9.108;2023-10-19T03:39:39;23.77;;;14.00;;
3085;SDS011;52812;48.960;9.108;2023-10-19T03:42:06;27.00;;;14.27;;
3085;SDS011;52812;48.960;9.108;2023-10-19T03:44:32;22.27;;;13.03;;
3085;SDS011;52812;48.960;9.108;2023-10-19T03:47:21;23.30;;;13.80;;
3085;SDS011;52812;48.960;9.108;2023-10-19T03:49:51;24.80;;;14.87;;
3085;SDS011;52812;48.960;9.108;2023-10-19T03:52:17;22.93;;;14.20;;
3085;SDS011;52812;48.960;9.108;2023-10-19T03:54:43;24.13;;;14.23;;
3085;SDS011;52812;48.960;9.108;2023-10-19T03:57:09;24.10;;;13.77;;
3085;SDS011;52812;48.960;9.108;2023-10-19T03:59:50;19.37;;;12.63;;
3085;SDS011;52812;48.960;9.108;2023-10-19T04:02:22;21.20;;;12.77;;
3085;SDS011;52812;48.960;9.108;2023-10-19T04:05:00;19.37;;;12.90;;
3085;SDS011;52812;48.960;9.108;2023-10-19T04:07:27;19.93;;;12.90;;
3085;SDS011;52812;48.960;9.108;2023-10-19T04:09:56;24.33;;;14.07;;
3085;SDS011;52812;48.960;9.108;2023-10-19T04:12:24;20.17;;;13.00;;
3085;SDS011;52812;48.960;9.108;2023-10-19T04:14:50;23.50;;;13.87;;
3085;SDS011;52812;48.960;9.108;2023-10-19T04:17:16;23.20;;;13.97;;
3085;SDS011;52812;48.960;9.108;2023-10-19T04:19:45;22.60;;;13.50;;
3085;SDS011;52812;48.960;9.108;2023-10-19T04:22:13;19.77;;;13.40;;
3085;SDS011;52812;48.960;9.108;2023-10-19T04:24:47;20.27;;;12.20;;
3085;SDS011;52812;48.960;9.108;2023-10-19T04:27:13;19.13;;;12.57;;
3085;SDS011;52812;48.960;9.108;2023-10-19T04:29:39;17.20;;;11.37;;
3085;SDS011;52812;48.960;9.108;2023-10-19T04:32:08;18.77;;;13.00;;
3085;SDS011;52812;48.960;9.108;2023-10-19T04:34:39;21.27;;;14.17;;
3085;SDS011;52812;48.960;9.108;2023-10-19T04:37:05;20.20;;;11.77;;
3085;SDS011;52812;48.960;9.108;2023-10-19T04:39:32;19.50;;;12.50;;
3085;SDS011;52812;48.960;9.108;2023-10-19T04:41:59;18.17;;;11.83;;
3085;SDS011;52812;48.960;9.108;2023-10-19T04:44:25;21.40;;;12.13;;
3085;SDS011;52812;48.960;9.108;2023-10-19T04:46:50;17.50;;;11.50;;
3085;SDS011;52812;48.960;9.108;2023-10-19T04:49:16;21.30;;;12.90;;
3085;SDS011;52812;48.960;9.108;2023-10-19T04:51:42;19.47;;;12.60;;
3085;SDS011;52812;48.960;9.108;2023-10-19T04:54:08;19.20;;;13.40;;
3085;SDS011;52812;48.960;9.108;2023-10-19T04:56:34;20.10;;;12.60;;
3085;SDS011;52812;48.960;9.108;2023-10-19T04:59:03;18.70;;;11.90;;
3085;SDS011;52812;48.960;9.108;2023-10-19T05:01:29;18.90;;;11.80;;
3085;SDS011;52812;48.960;9.108;2023-10-19T05:03:58;17.90;;;12.70;;
3085;SDS011;52812;48.960;9.108;2023-10-19T05:06:24;19.87;;;11.83;;
3085;SDS011;52812;48.960;9.108;2023-10-19T05:08:50;23.83;;;15.07;;
3085;SDS011;52812;48.960;9.108;2023-10-19T05:11:17;20.73;;;14.77;;
3085;SDS011;52812;48.960;9.108;2023-10-19T05:13:42;17.57;;;12.80;;
3085;SDS011;52812;48.960;9.108;2023-10-19T05:16:08;20.63;;;14.30;;
3085;SDS011;52812;48.960;9.108;2023-10-19T05:18:35;17.87;;;13.03;;
3085;SDS011;52812;48.960;9.108;2023-10-19T05:21:00;16.57;;;11.27;;
3085;SDS011;52812;48.960;9.108;2023-10-19T05:23:26;17.70;;;12.10;;
3085;SDS011;52812;48.960;9.108;2023-10-19T05:25:53;22.40;;;11.90;;
3085;SDS011;52812;48.960;9.108;2023-10-19T05:28:24;18.67;;;12.00;;
3085;SDS011;52812;48.960;9.108;2023-10-19T05:30:50;18.17;;;11.57;;
3085;SDS011;52812;48.960;9.108;2023-10-19T05:33:19;18.43;;;12.90;;
3085;SDS011;52812;48.960;9.108;2023-10-19T05:35:48;22.35;;;14.73;;
3085;SDS011;52812;48.960;9.108;2023-10-19T05:38:15;14.90;;;10.80;;
3085;SDS011;52812;48.960;9.108;2023-10-19T05:40:51;14.87;;;10.77;;
3085;SDS011;52812;48.960;9.108;2023-10-19T05:43:17;15.83;;;10.30;;
3085;SDS011;52812;48.960;9.108;2023-10-19T05:45:43;13.97;;;10.20;;
3085;SDS011;52812;48.960;9.108;2023-10-19T05:48:10;24.27;;;10.47;;
3085;SDS011;52812;48.960;9.108;2023-10-19T05:50:36;17.87;;;11.50;;
3085;SDS011;52812;48.960;9.108;2023-10-19T05:53:02;15.87;;;11.27;;
3085;SDS011;52812;48.960;9.108;2023-10-19T05:55:28;15.07;;;10.83;;
3085;SDS011;52812;48.960;9.108;2023-10-19T05:57:55;14.13;;;10.23;;
3085;SDS011;52812;48.960;9.108;2023-10-19T06:00:21;15.17;;;10.20;;
3085;SDS011;52812;48.960;9.108;2023-10-19T06:02:50;12.87;;;9.30;;
3085;SDS011;52812;48.960;9.108;2023-10-19T06:05:16;14.90;;;10.30;;
3085;SDS011;52812;48.960;9.108;2023-10-19T06:07:46;16.50;;;10.77;;
3085;SDS011;52812;48.960;9.108;2023-10-19T06:10:14;15.73;;;10.47;;
3085;SDS011;52812;48.960;9.108;2023-10-19T06:12:45;17.43;;;11.77;;
3085;SDS011;52812;48.960;9.108;2023-10-19T06:15:14;21.27;;;12.20;;
3085;SDS011;52812;48.960;9.108;2023-10-19T06:17:41;17.57;;;11.50;;
3085;SDS011;52812;48.960;9.108;2023-10-19T06:20:07;19.93;;;11.37;;
3085;SDS011;52812;48.960;9.108;2023-10-19T06:22:44;18.40;;;11.67;;
3085;SDS011;52812;48.960;9.108;2023-10-19T06:25:17;15.80;;;11.67;;
3085;SDS011;52812;48.960;9.108;2023-10-19T06:27:43;15.17;;;10.93;;
3085;SDS011;52812;48.960;9.108;2023-10-19T06:30:09;14.13;;;9.97;;
3085;SDS011;52812;48.960;9.108;2023-10-19T06:32:36;14.37;;;10.40;;
3085;SDS011;52812;48.960;9.108;2023-10-19T06:35:02;17.30;;;11.27;;
3085;SDS011;52812;48.960;9.108;2023-10-19T06:37:28;16.97;;;11.90;;
3085;SDS011;52812;48.960;9.108;2023-10-19T06:39:54;18.70;;;11.70;;
3085;SDS011;52812;48.960;9.108;2023-10-19T06:42:20;17.70;;;11.97;;
3085;SDS011;52812;48.960;9.108;2023-10-19T06:44:46;18.20;;;11.47;;
3085;SDS011;52812;48.960;9.108;2023-10-19T06:47:11;21.13;;;12.17;;
3085;SDS011;52812;48.960;9.108;2023-10-19T06:49:38;22.83;;;13.50;;
3085;SDS011;52812;48.960;9.108;2023-10-19T06:52:04;17.80;;;11.80;;
3085;SDS011;52812;48.960;9.108;2023-10-19T06:54:30;16.73;;;12.13;;
3085;SDS011;52812;48.960;9.108;2023-10-19T06:56:57;20.17;;;12.93;;
3085;SDS011;52812;48.960;9.108;2023-10-19T06:59:23;16.27;;;11.70;;
3085;SDS011;52812;48.960;9.108;2023-10-19T07:01:49;16.97;;;11.80;;
3085;SDS011;52812;48.960;9.108;2023-10-19T07:04:15;22.23;;;13.27;;
3085;SDS011;52812;48.960;9.108;2023-10-19T07:06:40;20.00;;;13.20;;
3085;SDS011;52812;48.960;9.108;2023-10-19T07:09:06;17.90;;;12.07;;
3085;SDS011;52812;48.960;9.108;2023-10-19T07:11:35;22.00;;;12.83;;
3085;SDS011;52812;48.960;9.108;2023-10-19T07:14:01;17.80;;;12.37;;
3085;SDS011;52812;48.960;9.108;2023-10-19T07:16:26;16.37;;;11.70;;
3085;SDS011;52812;48.960;9.108;2023-10-19T07:18:54;15.97;;;11.60;;
3085;SDS011;52812;48.960;9.108;2023-10-19T07:21:22;18.20;;;12.20;;
3085;SDS011;52812;48.960;9.108;2023-10-19T07:23:48;19.80;;;11.93;;
3085;SDS011;52812;48.960;9.108;2023-10-19T07:26:17;18.80;;;11.77;;
3085;SDS011;52812;48.960;9.108;2023-10-19T07:28:44;15.17;;;10.87;;
3085;SDS011;52812;48.960;9.108;2023-10-19T07:31:10;15.90;;;11.40;;
3085;SDS011;52812;48.960;9.108;2023-10-19T07:33:40;16.03;;;11.50;;
3085;SDS011;52812;48.960;9.108;2023-10-19T07:36:13;21.80;;;11.67;;
3085;SDS011;52812;48.960;9.108;2023-10-19T07:38:39;17.40;;;12.60;;
3085;SDS011;52812;48.960;9.108;2023-10-19T07:41:07;16.27;;;11.30;;
3085;SDS011;52812;48.960;9.108;2023-10-19T07:43:37;19.17;;;12.23;;
3085;SDS011;52812;48.960;9.108;2023-10-19T07:46:04;15.17;;;11.00;;
3085;SDS011;52812;48.960;9.108;2023-10-19T07:48:29;17.13;;;12.27;;
3085;SDS011;52812;48.960;9.108;2023-10-19T07:50:55;17.97;;;11.93;;
3085;SDS011;52812;48.960;9.108;2023-10-19T07:53:21;16.60;;;11.67;;
3085;SDS011;52812;48.960;9.108;2023-10-19T07:55:47;18.40;;;11.60;;
3085;SDS011;52812;48.960;9.108;2023-10-19T07:58:13;14.50;;;10.53;;
3085;SDS011;52812;48.960;9.108;2023-10-19T08:00:38;17.33;;;10.70;;
3085;SDS011;52812;48.960;9.108;2023-10-19T08:03:04;15.20;;;10.30;;
3085;SDS011;52812;48.960;9.108;2023-10-19T08:05:31;15.20;;;10.67;;
3085;SDS011;52812;48.960;9.108;2023-10-19T08:07:57;14.60;;;10.10;;
3085;SDS011;52812;48.960;9.108;2023-10-19T08:10:24;14.73;;;10.20;;
3085;SDS011;52812;48.960;9.108;2023-10-19T08:12:51;13.20;;;9.53;;
3085;SDS011;52812;48.960;9.108;2023-10-19T08:15:18;12.70;;;9.80;;
3085;SDS011;52812;48.960;9.108;2023-10-19T08:17:45;17.10;;;10.40;;
3085;SDS011;52812;48.960;9.108;2023-10-19T08:20:13;12.53;;;9.67;;
3085;SDS011;52812;48.960;9.108;2023-10-19T08:22:48;15.00;;;10.37;;
3085;SDS011;52812;48.960;9.108;2023-10-19T08:25:17;14.20;;;9.80;;
3085;SDS011;52812;48.960;9.108;2023-10-19T08:27:44;17.70;;;10.10;;
3085;SDS011;52812;48.960;9.108;2023-10-19T08:30:14;16.40;;;11.40;;
3085;SDS011;52812;48.960;9.108;2023-10-19T08:32:40;11.60;;;9.70;;
3085;SDS011;52812;48.960;9.108;2023-10-19T08:35:06;13.77;;;10.07;;
3085;SDS011;52812;48.960;9.108;2023-10-19T08:37:33;15.23;;;10.03;;
3085;SDS011;52812;48.960;9.108;2023-10-19T08:40:02;14.20;;;9.67;;
3085;SDS011;52812;48.960;9.108;2023-10-19T08:42:29;15.53;;;9.57;;
3085;SDS011;52812;48.960;9.108;2023-10-19T08:44:55;12.60;;;9.67;;
3085;SDS011;52812;48.960;9.108;2023-10-19T08:47:21;14.53;;;9.77;;
3085;SDS011;52812;48.960;9.108;2023-10-19T08:49:50;13.90;;;9.13;;
3085;SDS011;52812;48.960;9.108;2023-10-19T08:52:17;15.60;;;9.10;;
3085;SDS011;52812;48.960;9.108;2023-10-19T08:54:47;12.40;;;8.80;;
3085;SDS011;52812;48.960;9.108;2023-10-19T08:57:16;10.77;;;8.10;;
3085;SDS011;52812;48.960;9.108;2023-10-19T08:59:43;11.70;;;9.07;;
3085;SDS011;52812;48.960;9.108;2023-10-19T09:02:11;12.80;;;8.80;;
3085;SDS011;52812;48.960;9.108;2023-10-19T09:04:41;11.63;;;8.20;;
3085;SDS011;52812;48.960;9.108;2023-10-19T09:07:08;12.50;;;8.47;;
3085;SDS011;52812;48.960;9.108;2023-10-19T09:09:35;11.43;;;8.90;;
3085;SDS011;52812;48.960;9.108;2023-10-19T09:12:05;13.37;;;7.67;;
3085;SDS011;52812;48.960;9.108;2023-10-19T09:14:35;10.63;;;7.40;;
3085;SDS011;52812;48.960;9.108;2023-10-19T09:17:01;11.63;;;7.50;;
3085;SDS011;52812;48.960;9.108;2023-10-19T09:19:41;9.53;;;7.33;;
3085;SDS011;52812;48.960;9.108;2023-10-19T09:22:08;10.67;;;7.90;;
3085;SDS011;52812;48.960;9.108;2023-10-19T09:24:44;12.70;;;8.10;;
3085;SDS011;52812;48.960;9.108;2023-10-19T09:27:11;9.40;;;7.47;;
3085;SDS011;52812;48.960;9.108;2023-10-19T09:29:38;14.30;;;7.87;;
3085;SDS011;52812;48.960;9.108;2023-10-19T09:32:06;10.47;;;7.97;;
3085;SDS011;52812;48.960;9.108;2023-10-19T09:34:32;10.40;;;7.90;;
3085;SDS011;52812;48.960;9.108;2023-10-19T09:37:00;12.23;;;8.20;;
3085;SDS011;52812;48.960;9.108;2023-10-19T09:39:31;11.10;;;7.60;;
3085;SDS011;52812;48.960;9.108;2023-10-19T09:42:02;11.40;;;8.17;;
3085;SDS011;52812;48.960;9.108;2023-10-19T09:44:39;10.33;;;7.80;;
3085;SDS011;52812;48.960;9.108;2023-10-19T09:47:12;10.40;;;7.80;;
3085;SDS011;52812;48.960;9.108;2023-10-19T09:49:51;11.40;;;7.20;;
3085;SDS011;52812;48.960;9.108;2023-10-19T09:52:16;10.20;;;7.30;;
3085;SDS011;52812;48.960;9.108;2023-10-19T09:57:19;10.27;;;7.57;;
3085;SDS011;52812;48.960;9.108;2023-10-19T09:59:54;9.97;;;7.20;;
3085;SDS011;52812;48.960;9.108;2023-10-19T10:02:32;8.53;;;6.83;;
3085;SDS011;52812;48.960;9.108;2023-10-19T10:04:57;9.20;;;6.53;;
3085;SDS011;52812;48.960;9.108;2023-10-19T10:07:24;10.20;;;6.37;;
3085;SDS011;52812;48.960;9.108;2023-10-19T10:09:50;10.70;;;6.20;;
3085;SDS011;52812;48.960;9.108;2023-10-19T10:14:56;9.83;;;6.27;;
3085;SDS011;52812;48.960;9.108;2023-10-19T10:17:38;8.63;;;5.13;;
3085;SDS011;52812;48.960;9.108;2023-10-19T10:22:42;8.10;;;5.43;;
3085;SDS011;52812;48.960;9.108;2023-10-19T10:25:25;7.57;;;5.00;;
3085;SDS011;52812;48.960;9.108;2023-10-19T10:27:54;7.60;;;5.53;;
3085;SDS011;52812;48.960;9.108;2023-10-19T10:30:20;7.97;;;4.97;;
3085;SDS011;52812;48.960;9.108;2023-10-19T10:32:47;9.00;;;4.93;;
3085;SDS011;52812;48.960;9.108;2023-10-19T10:38:19;11.10;;;4.90;;
3085;SDS011;52812;48.960;9.108;2023-10-19T10:40:48;6.43;;;5.00;;
3085;SDS011;52812;48.960;9.108;2023-10-19T10:43:15;6.17;;;4.97;;
3085;SDS011;52812;48.960;9.108;2023-10-19T10:45:44;9.50;;;5.60;;
3085;SDS011;52812;48.960;9.108;2023-10-19T10:48:13;7.63;;;4.83;;
3085;SDS011;52812;48.960;9.108;2023-10-19T10:50:40;5.97;;;4.40;;
3085;SDS011;52812;48.960;9.108;2023-10-19T10:53:07;8.07;;;5.60;;
3085;SDS011;52812;48.960;9.108;2023-10-19T10:55:40;7.60;;;5.30;;
3085;SDS011;52812;48.960;9.108;2023-10-19T10:58:06;7.60;;;5.10;;
3085;SDS011;52812;48.960;9.108;2023-10-19T11:00:31;7.97;;;5.33;;
3085;SDS011;52812;48.960;9.108;2023-10-19T11:03:06;7.30;;;4.90;;
3085;SDS011;52812;48.960;9.108;2023-10-19T11:05:33;6.87;;;5.50;;
3085;SDS011;52812;48.960;9.108;2023-10-19T11:10:39;6.80;;;4.80;;
3085;SDS011;52812;48.960;9.108;2023-10-19T11:13:10;6.97;;;5.40;;
3085;SDS011;52812;48.960;9.108;2023-10-19T11:15:53;7.40;;;5.60;;
3085;SDS011;52812;48.960;9.108;2023-10-19T11:18:37;9.30;;;5.50;;
3085;SDS011;52812;48.960;9.108;2023-10-19T11:21:08;8.73;;;5.73;;
3085;SDS011;52812;48.960;9.108;2023-10-19T11:23:38;6.90;;;5.23;;
3085;SDS011;52812;48.960;9.108;2023-10-19T11:26:12;7.50;;;4.97;;
3085;SDS011;52812;48.960;9.108;2023-10-19T11:28:39;7.03;;;4.93;;
3085;SDS011;52812;48.960;9.108;2023-10-19T11:31:19;5.83;;;4.60;;
3085;SDS011;52812;48.960;9.108;2023-10-19T11:33:48;6.33;;;4.40;;
3085;SDS011;52812;48.960;9.108;2023-10-19T11:36:19;6.13;;;4.40;;
3085;SDS011;52812;48.960;9.108;2023-10-19T11:38:46;6.80;;;4.87;;
3085;SDS011;52812;48.960;9.108;2023-10-19T11:41:13;6.33;;;4.10;;
3085;SDS011;52812;48.960;9.108;2023-10-19T11:43:40;8.93;;;4.20;;
3085;SDS011;52812;48.960;9.108;2023-10-19T11:46:07;6.60;;;3.70;;
3085;SDS011;52812;48.960;9.108;2023-10-19T11:48:34;5.77;;;4.23;;
3085;SDS011;52812;48.960;9.108;2023-10-19T11:51:03;5.93;;;3.90;;
3085;SDS011;52812;48.960;9.108;2023-10-19T11:53:31;9.70;;;5.30;;
3085;SDS011;52812;48.960;9.108;2023-10-19T11:55:59;6.43;;;4.57;;
3085;SDS011;52812;48.960;9.108;2023-10-19T11:58:32;6.87;;;4.97;;
3085;SDS011;52812;48.960;9.108;2023-10-19T12:00:59;7.53;;;5.00;;
3085;SDS011;52812;48.960;9.108;2023-10-19T12:03:32;10.50;;;7.53;;
3085;SDS011;52812;48.960;9.108;2023-10-19T12:06:03;12.90;;;8.70;;
3085;SDS011;52812;48.960;9.108;2023-10-19T12:08:32;13.50;;;9.23;;
3085;SDS011;52812;48.960;9.108;2023-10-19T12:10:59;13.40;;;7.93;;
3085;SDS011;52812;48.960;9.108;2023-10-19T12:13:27;10.30;;;6.40;;
3085;SDS011;52812;48.960;9.108;2023-10-19T12:15:53;11.57;;;7.10;;
3085;SDS011;52812;48.960;9.108;2023-10-19T12:18:20;9.00;;;6.13;;
3085;SDS011;52812;48.960;9.108;2023-10-19T12:20:46;9.23;;;5.70;;
3085;SDS011;52812;48.960;9.108;2023-10-19T12:23:13;9.83;;;5.57;;
3085;SDS011;52812;48.960;9.108;2023-10-19T12:25:39;9.73;;;5.93;;
3085;SDS011;52812;48.960;9.108;2023-10-19T12:28:07;9.83;;;6.00;;
3085;SDS011;52812;48.960;9.108;2023-10-19T12:30:33;7.63;;;5.67;;
3085;SDS011;52812;48.960;9.108;2023-10-19T12:33:06;14.00;;;6.20;;
3085;SDS011;52812;48.960;9.108;2023-10-19T12:35:37;8.13;;;5.30;;
3085;SDS011;52812;48.960;9.108;2023-10-19T12:38:17;9.80;;;6.60;;
3085;SDS011;52812;48.960;9.108;2023-10-19T12:40:49;9.87;;;6.20;;
3085;SDS011;52812;48.960;9.108;2023-10-19T12:43:19;8.80;;;6.47;;
3085;SDS011;52812;48.960;9.108;2023-10-19T12:45:48;12.53;;;7.03;;
3085;SDS011;52812;48.960;9.108;2023-10-19T12:48:22;8.97;;;6.37;;
3085;SDS011;52812;48.960;9.108;2023-10-19T12:50:55;10.20;;;6.40;;
3085;SDS011;52812;48.960;9.108;2023-10-19T12:53:20;9.03;;;6.00;;
3085;SDS011;52812;48.960;9.108;2023-10-19T12:55:49;9.93;;;5.97;;
3085;SDS011;52812;48.960;9.108;2023-10-19T12:58:15;10.80;;;6.47;;
3085;SDS011;52812;48.960;9.108;2023-10-19T13:00:44;9.27;;;6.17;;
3085;SDS011;52812;48.960;9.108;2023-10-19T13:03:10;8.57;;;6.47;;
3085;SDS011;52812;48.960;9.108;2023-10-19T13:05:41;9.17;;;6.50;;
3085;SDS011;52812;48.960;9.108;2023-10-19T13:08:09;11.37;;;7.03;;
3085;SDS011;52812;48.960;9.108;2023-10-19T13:10:38;11.03;;;7.30;;
3085;SDS011;52812;48.960;9.108;2023-10-19T13:13:07;9.13;;;7.10;;
3085;SDS011;52812;48.960;9.108;2023-10-19T13:15:38;9.57;;;6.83;;
3085;SDS011;52812;48.960;9.108;2023-10-19T13:18:05;9.13;;;6.97;;
3085;SDS011;52812;48.960;9.108;2023-10-19T13:20:34;11.03;;;7.13;;
3085;SDS011;52812;48.960;9.108;2023-10-19T13:23:02;11.17;;;7.17;;
3085;SDS011;52812;48.960;9.108;2023-10-19T13:25:30;15.70;;;7.47;;
3085;SDS011;52812;48.960;9.108;2023-10-19T13:28:17;8.67;;;7.10;;
3085;SDS011;52812;48.960;9.108;2023-10-19T13:30:50;12.67;;;7.60;;
3085;SDS011;52812;48.960;9.108;2023-10-19T13:33:20;10.50;;;7.00;;
3085;SDS011;52812;48.960;9.108;2023-10-19T13:35:47;9.97;;;7.57;;
3085;SDS011;52812;48.960;9.108;2023-10-19T13:38:14;12.10;;;7.77;;
3085;SDS011;52812;48.960;9.108;2023-10-19T13:40:42;15.33;;;7.73;;
3085;SDS011;52812;48.960;9.108;2023-10-19T13:43:09;13.43;;;7.37;;
3085;SDS011;52812;48.960;9.108;2023-10-19T13:45:39;10.80;;;7.90;;
3085;SDS011;52812;48.960;9.108;2023-10-19T13:48:06;10.10;;;7.90;;
3085;SDS011;52812;48.960;9.108;2023-10-19T13:50:33;11.03;;;6.80;;
3085;SDS011;52812;48.960;9.108;2023-10-19T13:53:00;11.50;;;8.07;;
3085;SDS011;52812;48.960;9.108;2023-10-19T13:55:27;10.57;;;7.50;;
3085;SDS011;52812;48.960;9.108;2023-10-19T13:57:53;11.77;;;7.00;;
3085;SDS011;52812;48.960;9.108;2023-10-19T14:00:20;11.37;;;7.63;;
3085;SDS011;52812;48.960;9.108;2023-10-19T14:02:55;10.90;;;7.30;;
3085;SDS011;52812;48.960;9.108;2023-10-19T14:05:22;10.70;;;7.70;;
3085;SDS011;52812;48.960;9.108;2023-10-19T14:07:49;12.00;;;7.60;;
3085;SDS011;52812;48.960;9.108;2023-10-19T14:10:16;12.00;;;7.70;;
3085;SDS011;52812;48.960;9.108;2023-10-19T14:12:44;11.07;;;8.47;;
3085;SDS011;52812;48.960;9.108;2023-10-19T14:17:40;19.00;;;11.00;;
3085;SDS011;52812;48.960;9.108;2023-10-19T14:20:07;11.67;;;8.60;;
3085;SDS011;52812;48.960;9.108;2023-10-19T14:22:38;11.37;;;7.53;;
3085;SDS011;52812;48.960;9.108;2023-10-19T14:25:11;9.07;;;6.70;;
3085;SDS011;52812;48.960;9.108;2023-10-19T14:27:45;8.60;;;6.53;;
3085;SDS011;52812;48.960;9.108;2023-10-19T14:30:15;8.57;;;7.23;;
3085;SDS011;52812;48.960;9.108;2023-10-19T14:32:44;11.73;;;6.90;;
3085;SDS011;52812;48.960;9.108;2023-10-19T14:35:14;14.10;;;7.50;;
3085;SDS011;52812;48.960;9.108;2023-10-19T14:37:42;9.73;;;7.33;;
3085;SDS011;52812;48.960;9.108;2023-10-19T14:40:17;9.80;;;7.70;;
3085;SDS011;52812;48.960;9.108;2023-10-19T14:42:46;15.10;;;7.60;;
3085;SDS011;52812;48.960;9.108;2023-10-19T14:45:13;10.77;;;7.90;;
3085;SDS011;52812;48.960;9.108;2023-10-19T14:47:41;9.80;;;7.07;;
3085;SDS011;52812;48.960;9.108;2023-10-19T14:50:11;10.10;;;7.50;;
3085;SDS011;52812;48.960;9.108;2023-10-19T14:52:40;10.23;;;7.30;;
3085;SDS011;52812;48.960;9.108;2023-10-19T14:55:08;10.10;;;7.00;;
3085;SDS011;52812;48.960;9.108;2023-10-19T14:57:39;8.10;;;6.30;;
3085;SDS011;52812;48.960;9.108;2023-10-19T15:00:06;13.60;;;7.00;;
3085;SDS011;52812;48.960;9.108;2023-10-19T15:02:52;12.40;;;7.30;;
3085;SDS011;52812;48.960;9.108;2023-10-19T15:05:20;10.90;;;8.07;;
3085;SDS011;52812;48.960;9.108;2023-10-19T15:07:49;11.97;;;8.50;;
3085;SDS011;52812;48.960;9.108;2023-10-19T15:10:20;13.63;;;8.60;;
3085;SDS011;52812;48.960;9.108;2023-10-19T15:12:50;12.87;;;8.50;;
3085;SDS011;52812;48.960;9.108;2023-10-19T15:15:16;12.33;;;7.90;;
3085;SDS011;52812;48.960;9.108;2023-10-19T15:17:42;14.30;;;7.80;;
3085;SDS011;52812;48.960;9.108;2023-10-19T15:20:09;13.77;;;9.17;;
3085;SDS011;52812;48.960;9.108;2023-10-19T15:22:37;12.13;;;8.60;;
3085;SDS011;52812;48.960;9.108;2023-10-19T15:25:06;14.50;;;8.00;;